sensor_id;sensor_type;location;lat;lon;timestamp;P1;durP1;ratioP1;P2;durP2;ratioP2
74577;SDS011;63173;49.086;33.418;2023-05-21T00:00:47;5.60;;;1.67;;
74577;SDS011;63173;49.086;33.418;2023-05-21T00:03:13;8.63;;;1.60;;
74577;SDS011;63173;49.086;33.418;2023-05-21T00:05:38;5.00;;;1.63;;
74577;SDS011;63173;49.086;33.418;2023-05-21T00:08:04;7.57;;;1.50;;
74577;SDS011;63173;49.086;33.418;2023-05-21T00:10:30;4.13;;;1.45;;
74577;SDS011;63173;49.086;33.418;2023-05-21T00:12:56;4.10;;;1.52;;
74577;SDS011;63173;49.086;33.418;2023-05-21T00:15:21;3.55;;;1.58;;
74577;SDS011;63173;49.086;33.418;2023-05-21T00:17:46;7.70;;;1.20;;
74577;SDS011;63173;49.086;33.418;2023-05-21T00:20:12;3.60;;;1.30;;
74577;SDS011;63173;49.086;33.418;2023-05-21T00:22:38;3.47;;;1.48;;
74577;SDS011;63173;49.086;33.418;2023-05-21T00:25:04;6.35;;;1.30;;
74577;SDS011;63173;49.086;33.418;2023-05-21T00:27:30;6.32;;;1.50;;
74577;SDS011;63173;49.086;33.418;2023-05-21T00:29:56;5.47;;;1.25;;
74577;SDS011;63173;49.086;33.418;2023-05-21T00:32:21;4.75;;;1.10;;
74577;SDS011;63173;49.086;33.418;2023-05-21T00:34:47;4.18;;;1.17;;
74577;SDS011;63173;49.086;33.418;2023-05-21T00:37:12;5.47;;;1.63;;
74577;SDS011;63173;49.086;33.418;2023-05-21T00:39:39;9.20;;;1.70;;
74577;SDS011;63173;49.086;33.418;2023-05-21T00:42:05;13.00;;;1.60;;
74577;SDS011;63173;49.086;33.418;2023-05-21T00:44:30;4.60;;;1.45;;
74577;SDS011;63173;49.086;33.418;2023-05-21T00:46:59;4.43;;;1.02;;
74577;SDS011;63173;49.086;33.418;2023-05-21T00:49:27;4.13;;;1.83;;
74577;SDS011;63173;49.086;33.418;2023-05-21T00:51:54;3.20;;;1.35;;
74577;SDS011;63173;49.086;33.418;2023-05-21T00:54:19;4.72;;;1.20;;
74577;SDS011;63173;49.086;33.418;2023-05-21T00:56:46;3.90;;;1.33;;
74577;SDS011;63173;49.086;33.418;2023-05-21T00:59:12;6.20;;;1.13;;
74577;SDS011;63173;49.086;33.418;2023-05-21T01:01:40;2.88;;;1.20;;
74577;SDS011;63173;49.086;33.418;2023-05-21T01:04:09;2.60;;;1.20;;
74577;SDS011;63173;49.086;33.418;2023-05-21T01:06:35;7.82;;;1.27;;
74577;SDS011;63173;49.086;33.418;2023-05-21T01:09:02;6.78;;;1.25;;
74577;SDS011;63173;49.086;33.418;2023-05-21T01:11:36;4.07;;;1.40;;
74577;SDS011;63173;49.086;33.418;2023-05-21T01:14:04;5.28;;;1.30;;
74577;SDS011;63173;49.086;33.418;2023-05-21T01:16:34;2.33;;;1.10;;
74577;SDS011;63173;49.086;33.418;2023-05-21T01:19:01;7.82;;;1.05;;
74577;SDS011;63173;49.086;33.418;2023-05-21T01:21:27;7.10;;;1.50;;
74577;SDS011;63173;49.086;33.418;2023-05-21T01:23:54;4.15;;;1.10;;
74577;SDS011;63173;49.086;33.418;2023-05-21T01:26:20;1.80;;;0.93;;
74577;SDS011;63173;49.086;33.418;2023-05-21T01:28:45;4.85;;;1.20;;
74577;SDS011;63173;49.086;33.418;2023-05-21T01:31:15;9.95;;;1.20;;
74577;SDS011;63173;49.086;33.418;2023-05-21T01:33:49;5.13;;;1.00;;
74577;SDS011;63173;49.086;33.418;2023-05-21T01:36:20;2.75;;;1.23;;
74577;SDS011;63173;49.086;33.418;2023-05-21T01:39:00;4.53;;;1.13;;
74577;SDS011;63173;49.086;33.418;2023-05-21T01:41:32;12.10;;;1.30;;
74577;SDS011;63173;49.086;33.418;2023-05-21T01:44:00;4.32;;;1.00;;
74577;SDS011;63173;49.086;33.418;2023-05-21T01:46:30;5.32;;;1.30;;
74577;SDS011;63173;49.086;33.418;2023-05-21T01:48:58;2.30;;;1.08;;
74577;SDS011;63173;49.086;33.418;2023-05-21T01:51:24;4.07;;;1.05;;
74577;SDS011;63173;49.086;33.418;2023-05-21T01:53:51;3.13;;;1.00;;
74577;SDS011;63173;49.086;33.418;2023-05-21T01:56:16;2.33;;;1.20;;
74577;SDS011;63173;49.086;33.418;2023-05-21T01:58:41;5.68;;;1.40;;
74577;SDS011;63173;49.086;33.418;2023-05-21T02:01:08;4.00;;;1.42;;
74577;SDS011;63173;49.086;33.418;2023-05-21T02:03:33;9.65;;;1.60;;
74577;SDS011;63173;49.086;33.418;2023-05-21T02:05:59;3.85;;;1.20;;
74577;SDS011;63173;49.086;33.418;2023-05-21T02:08:24;4.05;;;1.40;;
74577;SDS011;63173;49.086;33.418;2023-05-21T02:10:51;6.50;;;1.40;;
74577;SDS011;63173;49.086;33.418;2023-05-21T02:13:16;2.10;;;1.17;;
74577;SDS011;63173;49.086;33.418;2023-05-21T02:15:46;3.00;;;1.25;;
74577;SDS011;63173;49.086;33.418;2023-05-21T02:18:12;5.82;;;1.42;;
74577;SDS011;63173;49.086;33.418;2023-05-21T02:20:41;12.20;;;1.40;;
74577;SDS011;63173;49.086;33.418;2023-05-21T02:23:07;4.70;;;1.20;;
74577;SDS011;63173;49.086;33.418;2023-05-21T02:25:33;4.32;;;1.20;;
74577;SDS011;63173;49.086;33.418;2023-05-21T02:27:58;2.90;;;1.05;;
74577;SDS011;63173;49.086;33.418;2023-05-21T02:30:25;5.20;;;1.20;;
74577;SDS011;63173;49.086;33.418;2023-05-21T02:32:50;2.85;;;1.30;;
74577;SDS011;63173;49.086;33.418;2023-05-21T02:35:16;5.72;;;1.40;;
74577;SDS011;63173;49.086;33.418;2023-05-21T02:37:41;1.85;;;1.10;;
74577;SDS011;63173;49.086;33.418;2023-05-21T02:40:08;4.45;;;1.23;;
74577;SDS011;63173;49.086;33.418;2023-05-21T02:42:34;5.53;;;1.20;;
74577;SDS011;63173;49.086;33.418;2023-05-21T02:45:00;4.10;;;1.10;;
74577;SDS011;63173;49.086;33.418;2023-05-21T02:47:26;3.55;;;1.10;;
74577;SDS011;63173;49.086;33.418;2023-05-21T02:49:52;2.92;;;1.33;;
74577;SDS011;63173;49.086;33.418;2023-05-21T02:52:17;1.40;;;1.10;;
74577;SDS011;63173;49.086;33.418;2023-05-21T02:54:46;4.50;;;1.10;;
74577;SDS011;63173;49.086;33.418;2023-05-21T02:57:11;4.45;;;1.63;;
74577;SDS011;63173;49.086;33.418;2023-05-21T02:59:37;3.15;;;1.10;;
74577;SDS011;63173;49.086;33.418;2023-05-21T03:02:02;9.23;;;1.30;;
74577;SDS011;63173;49.086;33.418;2023-05-21T03:04:28;1.85;;;1.00;;
74577;SDS011;63173;49.086;33.418;2023-05-21T03:06:53;5.10;;;1.40;;
74577;SDS011;63173;49.086;33.418;2023-05-21T03:09:20;4.32;;;1.23;;
74577;SDS011;63173;49.086;33.418;2023-05-21T03:11:46;9.88;;;1.27;;
74577;SDS011;63173;49.086;33.418;2023-05-21T03:14:12;3.58;;;1.20;;
74577;SDS011;63173;49.086;33.418;2023-05-21T03:16:38;3.95;;;1.35;;
74577;SDS011;63173;49.086;33.418;2023-05-21T03:19:06;3.92;;;1.20;;
74577;SDS011;63173;49.086;33.418;2023-05-21T03:21:32;4.53;;;1.73;;
74577;SDS011;63173;49.086;33.418;2023-05-21T03:23:57;2.20;;;1.10;;
74577;SDS011;63173;49.086;33.418;2023-05-21T03:26:23;5.03;;;1.30;;
74577;SDS011;63173;49.086;33.418;2023-05-21T03:28:51;5.75;;;1.83;;
74577;SDS011;63173;49.086;33.418;2023-05-21T03:31:17;5.60;;;1.27;;
74577;SDS011;63173;49.086;33.418;2023-05-21T03:33:43;4.07;;;1.38;;
74577;SDS011;63173;49.086;33.418;2023-05-21T03:36:08;4.18;;;1.13;;
74577;SDS011;63173;49.086;33.418;2023-05-21T03:38:34;5.57;;;1.10;;
74577;SDS011;63173;49.086;33.418;2023-05-21T03:40:59;2.00;;;1.20;;
74577;SDS011;63173;49.086;33.418;2023-05-21T03:43:25;6.22;;;1.63;;
74577;SDS011;63173;49.086;33.418;2023-05-21T03:45:50;3.22;;;1.30;;
74577;SDS011;63173;49.086;33.418;2023-05-21T03:48:16;5.40;;;1.10;;
74577;SDS011;63173;49.086;33.418;2023-05-21T03:50:42;5.15;;;1.33;;
74577;SDS011;63173;49.086;33.418;2023-05-21T03:53:07;2.40;;;1.02;;
74577;SDS011;63173;49.086;33.418;2023-05-21T03:55:34;2.13;;;1.20;;
74577;SDS011;63173;49.086;33.418;2023-05-21T03:58:00;2.72;;;1.35;;
74577;SDS011;63173;49.086;33.418;2023-05-21T04:00:26;5.43;;;1.40;;
74577;SDS011;63173;49.086;33.418;2023-05-21T04:02:51;4.03;;;2.17;;
74577;SDS011;63173;49.086;33.418;2023-05-21T04:05:17;4.90;;;1.52;;
74577;SDS011;63173;49.086;33.418;2023-05-21T04:07:42;4.03;;;1.55;;
74577;SDS011;63173;49.086;33.418;2023-05-21T04:10:10;5.10;;;1.80;;
74577;SDS011;63173;49.086;33.418;2023-05-21T04:12:36;4.68;;;1.58;;
74577;SDS011;63173;49.086;33.418;2023-05-21T04:15:01;4.07;;;1.35;;
74577;SDS011;63173;49.086;33.418;2023-05-21T04:17:27;2.83;;;1.55;;
74577;SDS011;63173;49.086;33.418;2023-05-21T04:19:52;4.20;;;1.40;;
74577;SDS011;63173;49.086;33.418;2023-05-21T04:22:18;3.92;;;1.55;;
74577;SDS011;63173;49.086;33.418;2023-05-21T04:24:43;6.63;;;1.40;;
74577;SDS011;63173;49.086;33.418;2023-05-21T04:27:10;2.92;;;1.73;;
74577;SDS011;63173;49.086;33.418;2023-05-21T04:29:37;3.35;;;1.33;;
74577;SDS011;63173;49.086;33.418;2023-05-21T04:32:06;4.32;;;1.35;;
74577;SDS011;63173;49.086;33.418;2023-05-21T04:34:32;5.28;;;1.90;;
74577;SDS011;63173;49.086;33.418;2023-05-21T04:36:58;2.05;;;1.40;;
74577;SDS011;63173;49.086;33.418;2023-05-21T04:39:24;4.53;;;1.42;;
74577;SDS011;63173;49.086;33.418;2023-05-21T04:41:49;3.83;;;1.50;;
74577;SDS011;63173;49.086;33.418;2023-05-21T04:44:18;4.97;;;1.42;;
74577;SDS011;63173;49.086;33.418;2023-05-21T04:46:44;3.80;;;1.40;;
74577;SDS011;63173;49.086;33.418;2023-05-21T04:49:10;6.00;;;1.73;;
74577;SDS011;63173;49.086;33.418;2023-05-21T04:51:35;2.00;;;1.38;;
74577;SDS011;63173;49.086;33.418;2023-05-21T04:54:01;4.07;;;1.73;;
74577;SDS011;63173;49.086;33.418;2023-05-21T04:56:28;6.90;;;1.60;;
74577;SDS011;63173;49.086;33.418;2023-05-21T04:58:53;10.43;;;1.92;;
74577;SDS011;63173;49.086;33.418;2023-05-21T05:01:19;5.30;;;1.40;;
74577;SDS011;63173;49.086;33.418;2023-05-21T05:03:49;5.13;;;1.70;;
74577;SDS011;63173;49.086;33.418;2023-05-21T05:06:15;4.90;;;1.48;;
74577;SDS011;63173;49.086;33.418;2023-05-21T05:08:41;8.43;;;1.83;;
74577;SDS011;63173;49.086;33.418;2023-05-21T05:11:06;3.92;;;1.80;;
74577;SDS011;63173;49.086;33.418;2023-05-21T05:13:32;5.35;;;1.77;;
74577;SDS011;63173;49.086;33.418;2023-05-21T05:15:58;6.05;;;1.80;;
74577;SDS011;63173;49.086;33.418;2023-05-21T05:18:24;3.05;;;1.70;;
74577;SDS011;63173;49.086;33.418;2023-05-21T05:20:50;3.25;;;2.08;;
74577;SDS011;63173;49.086;33.418;2023-05-21T05:23:15;6.35;;;1.92;;
74577;SDS011;63173;49.086;33.418;2023-05-21T05:25:41;3.80;;;2.17;;
74577;SDS011;63173;49.086;33.418;2023-05-21T05:28:06;3.70;;;1.63;;
74577;SDS011;63173;49.086;33.418;2023-05-21T05:30:32;3.85;;;1.90;;
74577;SDS011;63173;49.086;33.418;2023-05-21T05:32:57;5.70;;;2.00;;
74577;SDS011;63173;49.086;33.418;2023-05-21T05:35:22;7.63;;;2.08;;
74577;SDS011;63173;49.086;33.418;2023-05-21T05:37:48;4.00;;;2.03;;
74577;SDS011;63173;49.086;33.418;2023-05-21T05:40:13;4.28;;;2.03;;
74577;SDS011;63173;49.086;33.418;2023-05-21T05:42:39;3.35;;;1.90;;
74577;SDS011;63173;49.086;33.418;2023-05-21T05:45:04;6.03;;;1.98;;
74577;SDS011;63173;49.086;33.418;2023-05-21T05:47:30;8.20;;;2.20;;
74577;SDS011;63173;49.086;33.418;2023-05-21T05:49:56;7.22;;;2.47;;
74577;SDS011;63173;49.086;33.418;2023-05-21T05:52:21;5.20;;;2.35;;
74577;SDS011;63173;49.086;33.418;2023-05-21T05:54:46;4.28;;;2.10;;
74577;SDS011;63173;49.086;33.418;2023-05-21T05:57:12;4.55;;;2.20;;
74577;SDS011;63173;49.086;33.418;2023-05-21T05:59:37;5.78;;;2.00;;
74577;SDS011;63173;49.086;33.418;2023-05-21T06:02:03;5.53;;;1.95;;
74577;SDS011;63173;49.086;33.418;2023-05-21T06:04:28;3.75;;;2.20;;
74577;SDS011;63173;49.086;33.418;2023-05-21T06:06:54;5.13;;;2.15;;
74577;SDS011;63173;49.086;33.418;2023-05-21T06:09:21;4.40;;;2.20;;
74577;SDS011;63173;49.086;33.418;2023-05-21T06:11:47;5.30;;;2.25;;
74577;SDS011;63173;49.086;33.418;2023-05-21T06:14:13;11.68;;;2.92;;
74577;SDS011;63173;49.086;33.418;2023-05-21T06:16:38;4.78;;;2.00;;
74577;SDS011;63173;49.086;33.418;2023-05-21T06:19:04;4.63;;;2.35;;
74577;SDS011;63173;49.086;33.418;2023-05-21T06:21:29;11.43;;;2.30;;
74577;SDS011;63173;49.086;33.418;2023-05-21T06:23:54;6.78;;;2.92;;
74577;SDS011;63173;49.086;33.418;2023-05-21T06:26:20;7.38;;;2.30;;
74577;SDS011;63173;49.086;33.418;2023-05-21T06:28:46;5.13;;;2.17;;
74577;SDS011;63173;49.086;33.418;2023-05-21T06:31:11;6.95;;;2.13;;
74577;SDS011;63173;49.086;33.418;2023-05-21T06:33:37;8.95;;;2.30;;
74577;SDS011;63173;49.086;33.418;2023-05-21T06:36:03;7.32;;;2.40;;
74577;SDS011;63173;49.086;33.418;2023-05-21T06:38:28;10.57;;;2.35;;
74577;SDS011;63173;49.086;33.418;2023-05-21T06:40:54;7.30;;;2.25;;
74577;SDS011;63173;49.086;33.418;2023-05-21T06:43:19;6.50;;;2.42;;
74577;SDS011;63173;49.086;33.418;2023-05-21T06:45:44;6.65;;;2.17;;
74577;SDS011;63173;49.086;33.418;2023-05-21T06:48:11;9.32;;;2.78;;
74577;SDS011;63173;49.086;33.418;2023-05-21T06:50:37;7.22;;;2.17;;
74577;SDS011;63173;49.086;33.418;2023-05-21T06:53:03;5.45;;;2.13;;
74577;SDS011;63173;49.086;33.418;2023-05-21T06:55:28;3.42;;;2.03;;
74577;SDS011;63173;49.086;33.418;2023-05-21T06:57:53;6.38;;;2.35;;
74577;SDS011;63173;49.086;33.418;2023-05-21T07:00:20;11.23;;;3.83;;
74577;SDS011;63173;49.086;33.418;2023-05-21T07:02:45;10.52;;;2.80;;
74577;SDS011;63173;49.086;33.418;2023-05-21T07:05:11;6.43;;;2.10;;
74577;SDS011;63173;49.086;33.418;2023-05-21T07:07:36;7.25;;;2.28;;
74577;SDS011;63173;49.086;33.418;2023-05-21T07:10:01;5.05;;;2.30;;
74577;SDS011;63173;49.086;33.418;2023-05-21T07:12:27;7.55;;;2.40;;
74577;SDS011;63173;49.086;33.418;2023-05-21T07:14:52;6.38;;;2.35;;
74577;SDS011;63173;49.086;33.418;2023-05-21T07:17:18;7.03;;;1.98;;
74577;SDS011;63173;49.086;33.418;2023-05-21T07:19:43;7.93;;;2.50;;
74577;SDS011;63173;49.086;33.418;2023-05-21T07:22:09;4.97;;;2.20;;
74577;SDS011;63173;49.086;33.418;2023-05-21T07:24:36;8.70;;;2.40;;
74577;SDS011;63173;49.086;33.418;2023-05-21T07:27:02;5.38;;;2.30;;
74577;SDS011;63173;49.086;33.418;2023-05-21T07:29:27;8.82;;;2.10;;
74577;SDS011;63173;49.086;33.418;2023-05-21T07:31:53;10.18;;;2.13;;
74577;SDS011;63173;49.086;33.418;2023-05-21T07:34:18;4.57;;;2.10;;
74577;SDS011;63173;49.086;33.418;2023-05-21T07:36:43;4.55;;;2.10;;
74577;SDS011;63173;49.086;33.418;2023-05-21T07:39:09;6.55;;;2.38;;
74577;SDS011;63173;49.086;33.418;2023-05-21T07:41:34;6.30;;;2.60;;
74577;SDS011;63173;49.086;33.418;2023-05-21T07:44:00;7.32;;;2.20;;
74577;SDS011;63173;49.086;33.418;2023-05-21T07:46:25;4.50;;;1.75;;
74577;SDS011;63173;49.086;33.418;2023-05-21T07:48:51;5.20;;;2.00;;
74577;SDS011;63173;49.086;33.418;2023-05-21T07:51:16;4.90;;;2.35;;
74577;SDS011;63173;49.086;33.418;2023-05-21T07:53:43;6.28;;;2.30;;
74577;SDS011;63173;49.086;33.418;2023-05-21T07:56:09;5.47;;;2.10;;
74577;SDS011;63173;49.086;33.418;2023-05-21T07:58:34;3.53;;;1.80;;
74577;SDS011;63173;49.086;33.418;2023-05-21T08:01:00;5.90;;;2.28;;
74577;SDS011;63173;49.086;33.418;2023-05-21T08:03:25;5.10;;;1.95;;
74577;SDS011;63173;49.086;33.418;2023-05-21T08:05:55;5.22;;;1.88;;
74577;SDS011;63173;49.086;33.418;2023-05-21T08:08:20;5.63;;;1.73;;
74577;SDS011;63173;49.086;33.418;2023-05-21T08:10:47;3.65;;;1.77;;
74577;SDS011;63173;49.086;33.418;2023-05-21T08:13:14;9.52;;;2.20;;
74577;SDS011;63173;49.086;33.418;2023-05-21T08:15:40;10.43;;;2.20;;
74577;SDS011;63173;49.086;33.418;2023-05-21T08:18:06;5.22;;;2.20;;
74577;SDS011;63173;49.086;33.418;2023-05-21T08:20:31;7.03;;;2.00;;
74577;SDS011;63173;49.086;33.418;2023-05-21T08:22:57;6.40;;;1.98;;
74577;SDS011;63173;49.086;33.418;2023-05-21T08:25:24;3.05;;;2.20;;
74577;SDS011;63173;49.086;33.418;2023-05-21T08:27:50;4.28;;;2.13;;
74577;SDS011;63173;49.086;33.418;2023-05-21T08:30:15;3.70;;;2.28;;
74577;SDS011;63173;49.086;33.418;2023-05-21T08:32:41;6.88;;;2.42;;
74577;SDS011;63173;49.086;33.418;2023-05-21T08:35:07;4.65;;;2.00;;
74577;SDS011;63173;49.086;33.418;2023-05-21T08:37:33;6.38;;;2.33;;
74577;SDS011;63173;49.086;33.418;2023-05-21T08:39:58;4.88;;;2.20;;
74577;SDS011;63173;49.086;33.418;2023-05-21T08:45:13;4.85;;;1.98;;
74577;SDS011;63173;49.086;33.418;2023-05-21T08:47:43;7.13;;;2.38;;
74577;SDS011;63173;49.086;33.418;2023-05-21T08:50:09;5.03;;;2.10;;
74577;SDS011;63173;49.086;33.418;2023-05-21T08:52:36;4.75;;;2.05;;
74577;SDS011;63173;49.086;33.418;2023-05-21T08:55:05;5.47;;;2.30;;
74577;SDS011;63173;49.086;33.418;2023-05-21T08:57:31;8.05;;;2.22;;
74577;SDS011;63173;49.086;33.418;2023-05-21T08:59:57;5.10;;;1.98;;
74577;SDS011;63173;49.086;33.418;2023-05-21T09:02:23;5.90;;;2.10;;
74577;SDS011;63173;49.086;33.418;2023-05-21T09:04:49;5.07;;;2.47;;
74577;SDS011;63173;49.086;33.418;2023-05-21T09:07:21;7.22;;;2.20;;
74577;SDS011;63173;49.086;33.418;2023-05-21T09:09:56;7.97;;;2.50;;
74577;SDS011;63173;49.086;33.418;2023-05-21T09:12:25;4.32;;;2.63;;
74577;SDS011;63173;49.086;33.418;2023-05-21T09:14:52;4.45;;;2.05;;
74577;SDS011;63173;49.086;33.418;2023-05-21T09:17:18;6.40;;;2.20;;
74577;SDS011;63173;49.086;33.418;2023-05-21T09:22:32;6.82;;;2.10;;
74577;SDS011;63173;49.086;33.418;2023-05-21T09:24:57;5.10;;;1.85;;
74577;SDS011;63173;49.086;33.418;2023-05-21T09:27:23;6.05;;;2.20;;
74577;SDS011;63173;49.086;33.418;2023-05-21T09:29:48;7.13;;;2.10;;
74577;SDS011;63173;49.086;33.418;2023-05-21T09:32:14;10.88;;;2.60;;
74577;SDS011;63173;49.086;33.418;2023-05-21T09:34:41;6.22;;;2.17;;
74577;SDS011;63173;49.086;33.418;2023-05-21T09:37:06;8.77;;;2.20;;
74577;SDS011;63173;49.086;33.418;2023-05-21T09:39:33;6.43;;;2.20;;
74577;SDS011;63173;49.086;33.418;2023-05-21T09:41:59;4.25;;;2.28;;
74577;SDS011;63173;49.086;33.418;2023-05-21T09:44:26;6.30;;;2.20;;
74577;SDS011;63173;49.086;33.418;2023-05-21T09:46:55;3.35;;;2.00;;
74577;SDS011;63173;49.086;33.418;2023-05-21T09:49:22;4.28;;;2.10;;
74577;SDS011;63173;49.086;33.418;2023-05-21T09:51:53;9.65;;;2.70;;
74577;SDS011;63173;49.086;33.418;2023-05-21T09:54:19;5.25;;;2.40;;
74577;SDS011;63173;49.086;33.418;2023-05-21T09:56:45;8.02;;;2.95;;
74577;SDS011;63173;49.086;33.418;2023-05-21T09:59:11;5.03;;;2.40;;
74577;SDS011;63173;49.086;33.418;2023-05-21T10:01:36;5.55;;;2.45;;
74577;SDS011;63173;49.086;33.418;2023-05-21T10:04:06;5.18;;;2.35;;
74577;SDS011;63173;49.086;33.418;2023-05-21T10:06:33;9.35;;;2.58;;
74577;SDS011;63173;49.086;33.418;2023-05-21T10:09:06;5.53;;;2.60;;
74577;SDS011;63173;49.086;33.418;2023-05-21T10:11:34;4.63;;;2.35;;
74577;SDS011;63173;49.086;33.418;2023-05-21T10:14:03;4.60;;;2.38;;
74577;SDS011;63173;49.086;33.418;2023-05-21T10:16:34;7.55;;;2.70;;
74577;SDS011;63173;49.086;33.418;2023-05-21T10:19:00;14.38;;;3.03;;
74577;SDS011;63173;49.086;33.418;2023-05-21T10:21:27;9.52;;;2.72;;
74577;SDS011;63173;49.086;33.418;2023-05-21T10:23:52;6.55;;;2.67;;
74577;SDS011;63173;49.086;33.418;2023-05-21T10:26:21;6.55;;;2.70;;
74577;SDS011;63173;49.086;33.418;2023-05-21T10:28:48;7.22;;;2.90;;
74577;SDS011;63173;49.086;33.418;2023-05-21T10:31:19;4.25;;;2.50;;
74577;SDS011;63173;49.086;33.418;2023-05-21T10:33:44;5.80;;;2.40;;
74577;SDS011;63173;49.086;33.418;2023-05-21T10:36:10;7.85;;;2.95;;
74577;SDS011;63173;49.086;33.418;2023-05-21T10:38:36;6.93;;;2.72;;
74577;SDS011;63173;49.086;33.418;2023-05-21T10:41:02;8.68;;;2.60;;
74577;SDS011;63173;49.086;33.418;2023-05-21T10:46:37;10.07;;;3.47;;
74577;SDS011;63173;49.086;33.418;2023-05-21T10:49:11;8.60;;;2.92;;
74577;SDS011;63173;49.086;33.418;2023-05-21T10:57:20;7.80;;;2.92;;
74577;SDS011;63173;49.086;33.418;2023-05-21T11:00:09;7.97;;;3.00;;
74577;SDS011;63173;49.086;33.418;2023-05-21T11:05:03;8.35;;;2.40;;
74577;SDS011;63173;49.086;33.418;2023-05-21T11:13:09;3.97;;;2.53;;
74577;SDS011;63173;49.086;33.418;2023-05-21T11:21:15;10.02;;;2.47;;
74577;SDS011;63173;49.086;33.418;2023-05-21T11:23:54;4.95;;;3.22;;
74577;SDS011;63173;49.086;33.418;2023-05-21T11:26:28;7.65;;;3.35;;
74577;SDS011;63173;49.086;33.418;2023-05-21T11:29:17;9.73;;;2.75;;
74577;SDS011;63173;49.086;33.418;2023-05-21T11:31:44;8.27;;;2.90;;
74577;SDS011;63173;49.086;33.418;2023-05-21T11:34:11;6.57;;;2.67;;
74577;SDS011;63173;49.086;33.418;2023-05-21T11:36:43;6.25;;;2.58;;
74577;SDS011;63173;49.086;33.418;2023-05-21T11:39:10;8.00;;;2.90;;
74577;SDS011;63173;49.086;33.418;2023-05-21T11:44:42;6.43;;;3.10;;
74577;SDS011;63173;49.086;33.418;2023-05-21T11:47:10;5.03;;;2.83;;
74577;SDS011;63173;49.086;33.418;2023-05-21T11:49:39;11.23;;;3.60;;
74577;SDS011;63173;49.086;33.418;2023-05-21T11:52:06;5.57;;;2.85;;
74577;SDS011;63173;49.086;33.418;2023-05-21T11:54:37;8.57;;;2.95;;
74577;SDS011;63173;49.086;33.418;2023-05-21T11:57:05;5.70;;;2.95;;
74577;SDS011;63173;49.086;33.418;2023-05-21T11:59:31;8.50;;;3.10;;
74577;SDS011;63173;49.086;33.418;2023-05-21T12:01:58;7.95;;;2.97;;
74577;SDS011;63173;49.086;33.418;2023-05-21T12:04:33;6.18;;;2.80;;
74577;SDS011;63173;49.086;33.418;2023-05-21T12:07:03;6.25;;;3.65;;
74577;SDS011;63173;49.086;33.418;2023-05-21T12:09:37;8.02;;;3.60;;
74577;SDS011;63173;49.086;33.418;2023-05-21T12:12:03;9.68;;;3.47;;
74577;SDS011;63173;49.086;33.418;2023-05-21T12:14:30;5.95;;;3.42;;
74577;SDS011;63173;49.086;33.418;2023-05-21T12:16:56;11.70;;;4.40;;
74577;SDS011;63173;49.086;33.418;2023-05-21T12:19:22;6.07;;;3.55;;
74577;SDS011;63173;49.086;33.418;2023-05-21T12:21:47;5.45;;;3.40;;
74577;SDS011;63173;49.086;33.418;2023-05-21T12:24:14;5.47;;;3.33;;
74577;SDS011;63173;49.086;33.418;2023-05-21T12:26:40;9.55;;;3.78;;
74577;SDS011;63173;49.086;33.418;2023-05-21T12:29:08;14.68;;;3.65;;
74577;SDS011;63173;49.086;33.418;2023-05-21T12:31:45;7.38;;;3.08;;
74577;SDS011;63173;49.086;33.418;2023-05-21T12:34:12;9.23;;;3.67;;
74577;SDS011;63173;49.086;33.418;2023-05-21T12:36:39;6.03;;;3.00;;
74577;SDS011;63173;49.086;33.418;2023-05-21T12:39:10;6.45;;;3.20;;
74577;SDS011;63173;49.086;33.418;2023-05-21T12:41:35;5.97;;;3.30;;
74577;SDS011;63173;49.086;33.418;2023-05-21T12:44:01;8.52;;;3.15;;
74577;SDS011;63173;49.086;33.418;2023-05-21T12:46:26;7.13;;;3.20;;
74577;SDS011;63173;49.086;33.418;2023-05-21T12:48:52;9.45;;;3.50;;
74577;SDS011;63173;49.086;33.418;2023-05-21T12:51:19;6.18;;;3.67;;
74577;SDS011;63173;49.086;33.418;2023-05-21T12:53:45;6.80;;;3.00;;
74577;SDS011;63173;49.086;33.418;2023-05-21T12:56:11;8.65;;;3.50;;
74577;SDS011;63173;49.086;33.418;2023-05-21T12:58:38;7.25;;;3.05;;
74577;SDS011;63173;49.086;33.418;2023-05-21T13:01:08;5.75;;;2.95;;
74577;SDS011;63173;49.086;33.418;2023-05-21T13:03:36;6.80;;;3.28;;
74577;SDS011;63173;49.086;33.418;2023-05-21T13:06:06;7.05;;;3.22;;
74577;SDS011;63173;49.086;33.418;2023-05-21T13:08:32;7.93;;;3.40;;
74577;SDS011;63173;49.086;33.418;2023-05-21T13:11:03;7.13;;;3.83;;
74577;SDS011;63173;49.086;33.418;2023-05-21T13:13:29;9.13;;;3.20;;
74577;SDS011;63173;49.086;33.418;2023-05-21T13:15:54;9.52;;;3.35;;
74577;SDS011;63173;49.086;33.418;2023-05-21T13:18:20;7.95;;;3.75;;
74577;SDS011;63173;49.086;33.418;2023-05-21T13:20:46;10.35;;;3.45;;
74577;SDS011;63173;49.086;33.418;2023-05-21T13:23:15;13.38;;;5.47;;
74577;SDS011;63173;49.086;33.418;2023-05-21T13:25:40;10.10;;;3.53;;
74577;SDS011;63173;49.086;33.418;2023-05-21T13:28:06;12.48;;;3.15;;
74577;SDS011;63173;49.086;33.418;2023-05-21T13:30:34;10.52;;;3.38;;
74577;SDS011;63173;49.086;33.418;2023-05-21T13:33:00;7.68;;;3.25;;
74577;SDS011;63173;49.086;33.418;2023-05-21T13:35:26;7.60;;;3.30;;
74577;SDS011;63173;49.086;33.418;2023-05-21T13:37:51;9.48;;;3.53;;
74577;SDS011;63173;49.086;33.418;2023-05-21T13:40:17;8.75;;;3.15;;
74577;SDS011;63173;49.086;33.418;2023-05-21T13:42:43;8.75;;;3.42;;
74577;SDS011;63173;49.086;33.418;2023-05-21T13:45:11;9.55;;;3.58;;
74577;SDS011;63173;49.086;33.418;2023-05-21T13:47:37;10.85;;;4.22;;
74577;SDS011;63173;49.086;33.418;2023-05-21T13:50:03;11.52;;;4.45;;
74577;SDS011;63173;49.086;33.418;2023-05-21T13:52:29;10.75;;;3.90;;
74577;SDS011;63173;49.086;33.418;2023-05-21T13:54:55;8.73;;;3.60;;
74577;SDS011;63173;49.086;33.418;2023-05-21T13:57:20;7.93;;;3.40;;
74577;SDS011;63173;49.086;33.418;2023-05-21T13:59:46;11.70;;;3.85;;
74577;SDS011;63173;49.086;33.418;2023-05-21T14:02:11;5.47;;;3.50;;
74577;SDS011;63173;49.086;33.418;2023-05-21T14:04:38;6.72;;;3.72;;
74577;SDS011;63173;49.086;33.418;2023-05-21T14:07:03;7.70;;;3.65;;
74577;SDS011;63173;49.086;33.418;2023-05-21T14:09:29;14.43;;;3.67;;
74577;SDS011;63173;49.086;33.418;2023-05-21T14:11:55;8.15;;;3.45;;
74577;SDS011;63173;49.086;33.418;2023-05-21T14:14:21;6.70;;;3.38;;
74577;SDS011;63173;49.086;33.418;2023-05-21T14:16:47;5.40;;;3.38;;
74577;SDS011;63173;49.086;33.418;2023-05-21T14:19:16;6.53;;;3.28;;
74577;SDS011;63173;49.086;33.418;2023-05-21T14:21:41;8.02;;;3.42;;
74577;SDS011;63173;49.086;33.418;2023-05-21T14:24:07;6.25;;;3.22;;
74577;SDS011;63173;49.086;33.418;2023-05-21T14:26:33;9.90;;;3.50;;
74577;SDS011;63173;49.086;33.418;2023-05-21T14:29:00;7.50;;;3.58;;
74577;SDS011;63173;49.086;33.418;2023-05-21T14:31:26;6.97;;;4.00;;
74577;SDS011;63173;49.086;33.418;2023-05-21T14:33:51;9.90;;;3.33;;
74577;SDS011;63173;49.086;33.418;2023-05-21T14:36:17;7.88;;;3.28;;
74577;SDS011;63173;49.086;33.418;2023-05-21T14:38:42;10.55;;;3.65;;
74577;SDS011;63173;49.086;33.418;2023-05-21T14:41:07;9.40;;;3.75;;
74577;SDS011;63173;49.086;33.418;2023-05-21T14:43:33;12.35;;;4.45;;
74577;SDS011;63173;49.086;33.418;2023-05-21T14:46:00;7.97;;;3.33;;
74577;SDS011;63173;49.086;33.418;2023-05-21T14:48:26;12.55;;;3.60;;
74577;SDS011;63173;49.086;33.418;2023-05-21T14:50:52;10.00;;;3.72;;
74577;SDS011;63173;49.086;33.418;2023-05-21T14:53:17;16.00;;;6.65;;
74577;SDS011;63173;49.086;33.418;2023-05-21T14:55:43;9.90;;;3.22;;
74577;SDS011;63173;49.086;33.418;2023-05-21T14:58:09;8.50;;;3.47;;
74577;SDS011;63173;49.086;33.418;2023-05-21T15:00:36;6.72;;;2.92;;